createdAt,value
2023-01-10T00:03:19.540Z,991.30
2023-01-10T00:08:19.424Z,991.36
2023-01-10T00:20:23.304Z,991.68
2023-01-10T00:25:23.097Z,991.73
2023-01-10T00:30:22.902Z,991.86
2023-01-10T00:35:22.782Z,991.81
2023-01-10T00:40:22.801Z,991.89
2023-01-10T00:45:22.689Z,991.98
2023-01-10T00:50:22.907Z,992.09
2023-01-10T00:55:22.602Z,992.15
2023-01-10T01:00:22.583Z,992.17
2023-01-10T01:05:22.586Z,992.36
2023-01-10T01:10:25.579Z,992.48
2023-01-10T01:15:22.450Z,992.53
2023-01-10T01:20:22.283Z,992.61
2023-01-10T01:25:22.258Z,992.70
2023-01-10T01:30:22.345Z,992.83
2023-01-10T01:35:22.235Z,992.92
2023-01-10T01:40:22.075Z,993.04
2023-01-10T01:45:22.015Z,993.10
2023-01-10T01:50:22.023Z,993.13
2023-01-10T01:55:21.853Z,993.29
2023-01-10T02:00:21.733Z,993.35
2023-01-10T02:05:22.183Z,993.40
2023-01-10T02:10:24.662Z,993.49
2023-01-10T02:15:21.836Z,993.58
2023-01-10T02:20:21.679Z,993.68
2023-01-10T02:25:21.904Z,993.79
2023-01-10T02:45:36.756Z,994.13
2023-01-10T02:50:36.815Z,994.05
2023-01-10T02:55:36.675Z,994.07
2023-01-10T03:00:36.720Z,994.06
2023-01-10T03:05:36.719Z,994.14
2023-01-10T03:10:36.479Z,994.16
2023-01-10T03:15:36.334Z,994.29
2023-01-10T03:20:36.342Z,994.21
2023-01-10T03:25:36.374Z,994.20
2023-01-10T03:30:36.093Z,994.29
2023-01-10T03:35:40.289Z,994.38
2023-01-10T03:40:36.160Z,994.49
2023-01-10T03:45:35.984Z,994.70
2023-01-10T03:50:36.174Z,994.86
2023-01-10T03:55:36.145Z,994.91
2023-01-10T04:00:35.827Z,995.02
2023-01-10T04:05:35.825Z,995.16
2023-01-10T04:10:36.083Z,995.23
2023-01-10T04:15:35.634Z,995.24
2023-01-10T04:20:35.540Z,995.29
2023-01-10T04:25:35.782Z,995.33
2023-01-10T04:32:15.169Z,995.41
2023-01-10T04:41:13.772Z,995.60
2023-01-10T04:46:13.426Z,995.73
2023-01-10T04:51:13.050Z,995.88
2023-01-10T04:56:13.009Z,995.92
2023-01-10T05:01:12.923Z,996.18
2023-01-10T05:06:12.903Z,996.41
2023-01-10T05:13:17.523Z,996.52
2023-01-10T05:18:17.378Z,996.52
2023-01-10T05:23:17.462Z,996.67
2023-01-10T05:28:17.479Z,996.78
2023-01-10T05:33:17.143Z,996.89
2023-01-10T05:38:17.167Z,997.02
2023-01-10T05:43:17.090Z,997.05
2023-01-10T05:48:17.048Z,997.11
2023-01-10T05:53:17.261Z,997.23
2023-01-10T05:58:16.915Z,997.28
2023-01-10T06:03:19.928Z,997.43
2023-01-10T06:08:16.849Z,997.57
2023-01-10T06:13:24.899Z,997.63
2023-01-10T06:20:09.382Z,997.82
2023-01-10T06:25:09.113Z,997.97
2023-01-10T06:30:09.215Z,998.02
2023-01-10T06:35:09.308Z,998.09
2023-01-10T06:40:09.943Z,998.16
2023-01-10T06:45:08.846Z,998.27
2023-01-10T06:50:12.764Z,998.37
2023-01-10T06:57:58.063Z,998.63
2023-01-10T07:02:58.663Z,998.76
2023-01-10T07:07:58.968Z,998.88
2023-01-10T07:12:58.491Z,998.99
2023-01-10T07:17:57.693Z,999.06
2023-01-10T07:23:04.058Z,999.18
2023-01-10T07:27:58.370Z,999.31
2023-01-10T07:32:57.286Z,999.43
2023-01-10T07:37:57.157Z,999.60
2023-01-10T07:42:57.379Z,999.76
2023-01-10T07:48:00.268Z,999.77
2023-01-10T07:53:08.323Z,999.87
2023-01-10T07:57:56.959Z,999.94
2023-01-10T08:02:57.084Z,1000.02
2023-01-10T08:07:56.774Z,999.95
2023-01-10T08:12:59.593Z,1000.09
2023-01-10T08:17:57.575Z,1000.19
2023-01-10T08:22:56.899Z,1000.26
2023-01-10T08:27:56.509Z,1000.33
2023-01-10T08:33:01.015Z,1000.26
2023-01-10T08:37:56.337Z,1000.34
2023-01-10T08:42:56.364Z,1000.36
2023-01-10T08:48:00.009Z,1000.46
2023-01-10T08:52:56.310Z,1000.46
2023-01-10T08:57:56.175Z,1000.58
2023-01-10T09:16:53.521Z,1000.60
2023-01-10T09:25:36.871Z,1000.65
2023-01-10T09:32:49.036Z,1000.81
2023-01-10T09:39:07.959Z,1000.86
2023-01-10T09:44:08.463Z,1000.98
2023-01-10T09:49:08.208Z,1001.07
2023-01-10T09:54:12.505Z,1001.14
2023-01-10T09:59:08.907Z,1001.07
2023-01-10T10:04:08.046Z,1001.20
2023-01-10T10:09:07.655Z,1001.12
2023-01-10T10:14:07.588Z,1000.84
2023-01-10T10:19:07.535Z,1000.74
2023-01-10T10:24:07.591Z,1000.91
2023-01-10T10:29:10.351Z,1000.73
2023-01-10T10:34:07.212Z,1000.80
2023-01-10T10:39:07.360Z,1000.73
2023-01-10T10:44:07.236Z,1000.76
2023-01-10T10:49:07.119Z,1000.81
2023-01-10T10:54:07.228Z,1000.75
2023-01-10T10:59:07.089Z,1000.84
2023-01-10T11:04:06.973Z,1000.99
2023-01-10T11:09:06.941Z,1001.01
2023-01-10T11:14:06.847Z,1001.12
2023-01-10T11:19:06.879Z,1001.01
2023-01-10T11:24:06.556Z,1001.11
2023-01-10T11:29:09.607Z,1001.22
2023-01-10T11:34:06.449Z,1001.20
2023-01-10T11:39:06.616Z,1001.26
2023-01-10T11:44:06.426Z,1001.22
2023-01-10T11:49:08.163Z,1001.19
2023-01-10T11:54:06.336Z,1001.25
2023-01-10T11:59:06.195Z,1001.21
2023-01-10T12:04:06.067Z,1001.15
2023-01-10T12:09:06.174Z,1001.16
2023-01-10T12:14:05.857Z,1001.22
2023-01-10T12:19:06.124Z,1001.30
2023-01-10T12:24:05.684Z,1001.34
2023-01-10T12:29:08.998Z,1001.40
2023-01-10T12:34:05.681Z,1001.36
2023-01-10T12:39:05.680Z,1001.42
2023-01-10T12:44:05.481Z,1001.38
2023-01-10T12:49:05.632Z,1001.33
2023-01-10T12:54:05.269Z,1001.34
2023-01-10T12:59:05.544Z,1001.34
2023-01-10T13:04:05.230Z,1001.41
2023-01-10T13:09:05.131Z,1001.47
2023-01-10T13:14:05.055Z,1001.47
2023-01-10T13:19:13.708Z,1001.52
2023-01-10T13:24:04.871Z,1001.61
2023-01-10T13:29:08.025Z,1001.66
2023-01-10T13:34:04.791Z,1001.61
2023-01-10T13:39:04.733Z,1001.66
2023-01-10T13:44:04.757Z,1001.67
2023-01-10T13:49:04.734Z,1001.69
2023-01-10T13:54:04.497Z,1001.65
2023-01-10T13:59:04.456Z,1001.64
2023-01-10T14:04:04.565Z,1001.74
2023-01-10T14:09:11.839Z,1001.81
2023-01-10T14:14:11.218Z,1001.73
2023-01-10T14:19:13.222Z,1001.76
2023-01-10T14:24:04.255Z,1001.76
2023-01-10T14:29:07.196Z,1001.82
2023-01-10T14:34:03.990Z,1001.79
2023-01-10T14:39:04.057Z,1001.80
2023-01-10T14:44:03.796Z,1001.74
2023-01-10T14:49:03.971Z,1001.84
2023-01-10T14:54:03.809Z,1001.78
2023-01-10T14:59:03.789Z,1001.77
2023-01-10T15:04:03.576Z,1001.85
2023-01-10T15:09:03.840Z,1001.79
2023-01-10T15:14:03.468Z,1001.84
2023-01-10T15:19:03.515Z,1001.82
2023-01-10T15:24:03.311Z,1001.82
2023-01-10T15:29:06.600Z,1001.72
2023-01-10T15:34:03.418Z,1001.81
2023-01-10T15:39:03.123Z,1001.71
2023-01-10T15:44:03.163Z,1001.62
2023-01-10T15:49:03.176Z,1001.65
2023-01-10T15:54:03.060Z,1001.56
2023-01-10T15:59:02.872Z,1001.53
2023-01-10T16:04:11.179Z,1001.61
2023-01-10T16:09:02.774Z,1001.65
2023-01-10T16:14:02.722Z,1001.68
2023-01-10T16:19:02.982Z,1001.52
2023-01-10T16:24:02.600Z,1001.59
2023-01-10T16:29:05.611Z,1001.47
2023-01-10T16:34:02.414Z,1001.50
2023-01-10T16:39:03.192Z,1001.46
2023-01-10T16:44:02.787Z,1001.47
2023-01-10T16:49:02.399Z,1001.42
2023-01-10T16:54:10.366Z,1001.42
2023-01-10T16:59:03.345Z,1001.35
2023-01-10T17:04:02.145Z,1001.36
2023-01-10T17:09:02.002Z,1001.35
2023-01-10T17:14:01.886Z,1001.31
2023-01-10T17:19:01.780Z,1001.31
2023-01-10T17:24:01.808Z,1001.25
2023-01-10T17:29:04.805Z,1001.23
2023-01-10T17:34:01.763Z,1001.23
2023-01-10T17:39:02.090Z,1001.27
2023-01-10T17:44:01.489Z,1001.31
2023-01-10T17:49:01.435Z,1001.33
2023-01-10T17:54:01.508Z,1001.26
2023-01-10T17:59:01.345Z,1001.15
2023-01-10T18:04:01.275Z,1001.13
2023-01-10T18:09:01.148Z,1001.12
2023-01-10T18:14:01.072Z,1001.06
2023-01-10T18:19:01.043Z,1001.08
2023-01-10T18:24:01.069Z,1001.08
2023-01-10T18:29:04.357Z,1001.11
2023-01-10T18:34:01.087Z,1001.08
2023-01-10T18:39:00.839Z,1000.99
2023-01-10T18:44:00.746Z,1000.93
2023-01-10T18:50:18.404Z,1000.82
2023-01-10T18:55:18.329Z,1000.77
2023-01-10T19:00:18.228Z,1000.70
2023-01-10T19:05:18.881Z,1000.71
2023-01-10T19:10:25.866Z,1000.64
2023-01-10T19:16:56.979Z,1000.56
2023-01-10T19:30:12.897Z,1000.56
2023-01-10T19:36:32.275Z,1000.43
2023-01-10T19:41:32.100Z,1000.38
2023-01-10T19:46:33.745Z,1000.30
2023-01-10T19:51:31.934Z,1000.31
2023-01-10T19:56:31.825Z,1000.25
2023-01-10T20:01:32.120Z,1000.20
2023-01-10T20:06:31.798Z,1000.21
2023-01-10T20:11:31.685Z,1000.07
2023-01-10T20:18:08.250Z,1000.05
2023-01-10T20:23:09.061Z,999.94
2023-01-10T20:28:08.095Z,999.87
2023-01-10T20:33:07.910Z,999.81
2023-01-10T20:38:07.941Z,999.80
2023-01-10T20:43:07.871Z,999.74
2023-01-10T20:48:07.830Z,999.83
2023-01-10T20:53:07.658Z,999.75
2023-01-10T20:58:07.516Z,999.72
2023-01-10T21:03:07.497Z,999.60
2023-01-10T21:08:17.987Z,999.59
2023-01-10T21:13:14.918Z,999.57
2023-01-10T21:18:07.298Z,999.42
2023-01-10T21:24:25.923Z,999.34
2023-01-10T21:29:33.380Z,999.30
2023-01-10T21:34:33.331Z,999.15
2023-01-10T21:39:25.600Z,999.10
2023-01-10T21:44:25.579Z,999.07
2023-01-10T21:49:33.117Z,999.07
2023-01-10T21:54:25.467Z,999.02
2023-01-10T21:59:26.492Z,998.99
2023-01-10T22:04:25.267Z,998.85
2023-01-10T22:09:25.342Z,998.74
2023-01-10T22:14:28.190Z,998.58
2023-01-10T22:19:25.111Z,998.63
2023-01-10T22:24:27.450Z,998.61
2023-01-10T22:29:25.068Z,998.57
2023-01-10T22:34:24.993Z,998.42
2023-01-10T22:39:24.804Z,998.29
2023-01-10T22:44:33.369Z,998.14
2023-01-10T22:49:32.326Z,998.04
2023-01-10T22:54:24.848Z,998.05
2023-01-10T22:59:24.692Z,998.09
2023-01-10T23:04:24.560Z,998.09
2023-01-10T23:09:24.535Z,998.09
2023-01-10T23:14:34.947Z,998.11
2023-01-10T23:19:31.339Z,998.09
2023-01-10T23:24:24.396Z,997.95
2023-01-10T23:29:24.206Z,997.81
2023-01-10T23:34:24.222Z,997.76
2023-01-10T23:39:24.011Z,997.66
2023-01-10T23:44:24.057Z,997.66
2023-01-10T23:49:23.921Z,997.57
2023-01-10T23:54:23.935Z,997.51
2023-01-10T23:59:23.767Z,997.48
